sensor_id;sensor_type;location;lat;lon;timestamp;noise_LAeq;noise_LA_min;noise_LA_max;noise_LA01;noise_LA95
48967;Laerm;46511;53.148;8.204;2023-08-01T00:00:16;43.24;38.21;58.42;;
48967;Laerm;46511;53.148;8.204;2023-08-01T00:02:42;42.89;37.88;62.16;;
48967;Laerm;46511;53.148;8.204;2023-08-01T00:05:09;42.67;36.91;58.22;;
48967;Laerm;46511;53.148;8.204;2023-08-01T00:07:35;48.23;37.52;70.45;;
48967;Laerm;46511;53.148;8.204;2023-08-01T00:10:02;41.59;37.52;54.76;;
48967;Laerm;46511;53.148;8.204;2023-08-01T00:12:28;41.77;37.32;51.47;;
48967;Laerm;46511;53.148;8.204;2023-08-01T00:14:55;42.24;36.45;51.42;;
48967;Laerm;46511;53.148;8.204;2023-08-01T00:17:21;43.33;37.88;61.72;;
48967;Laerm;46511;53.148;8.204;2023-08-01T00:19:48;42.79;37.88;59.33;;
48967;Laerm;46511;53.148;8.204;2023-08-01T00:22:14;41.39;35.66;62.58;;
48967;Laerm;46511;53.148;8.204;2023-08-01T00:24:40;40.98;34.69;50.70;;
48967;Laerm;46511;53.148;8.204;2023-08-01T00:27:07;42.26;36.91;56.62;;
48967;Laerm;46511;53.148;8.204;2023-08-01T00:29:36;49.94;37.52;68.22;;
48967;Laerm;46511;53.148;8.204;2023-08-01T00:32:02;43.01;36.91;62.54;;
48967;Laerm;46511;53.148;8.204;2023-08-01T00:34:29;41.74;37.12;57.15;;
48967;Laerm;46511;53.148;8.204;2023-08-01T00:36:56;42.48;36.45;50.36;;
48967;Laerm;46511;53.148;8.204;2023-08-01T00:39:22;43.52;37.88;59.48;;
48967;Laerm;46511;53.148;8.204;2023-08-01T00:41:48;51.63;38.05;68.08;;
48967;Laerm;46511;53.148;8.204;2023-08-01T00:44:15;47.21;38.37;72.21;;
48967;Laerm;46511;53.148;8.204;2023-08-01T00:46:41;44.88;37.88;62.98;;
48967;Laerm;46511;53.148;8.204;2023-08-01T00:49:08;42.13;36.20;58.08;;
48967;Laerm;46511;53.148;8.204;2023-08-01T00:51:35;44.66;36.20;64.90;;
48967;Laerm;46511;53.148;8.204;2023-08-01T00:54:02;44.50;38.21;64.75;;
48967;Laerm;46511;53.148;8.204;2023-08-01T00:56:29;61.72;37.87;75.45;;
48967;Laerm;46511;53.148;8.204;2023-08-01T00:58:55;61.91;37.70;72.59;;
48967;Laerm;46511;53.148;8.204;2023-08-01T01:01:21;49.57;38.05;70.13;;
48967;Laerm;46511;53.148;8.204;2023-08-01T01:03:48;45.97;36.45;64.92;;
48967;Laerm;46511;53.148;8.204;2023-08-01T01:06:47;42.54;38.52;56.83;;
48967;Laerm;46511;53.148;8.204;2023-08-01T01:09:17;42.33;38.37;53.99;;
48967;Laerm;46511;53.148;8.204;2023-08-01T01:11:45;42.11;37.52;52.95;;
48967;Laerm;46511;53.148;8.204;2023-08-01T01:14:12;44.53;38.37;63.73;;
48967;Laerm;46511;53.148;8.204;2023-08-01T01:16:38;57.97;39.34;67.97;;
48967;Laerm;46511;53.148;8.204;2023-08-01T01:19:07;58.31;39.46;70.08;;
48967;Laerm;46511;53.148;8.204;2023-08-01T01:24:42;41.91;37.70;56.32;;
48967;Laerm;46511;53.148;8.204;2023-08-01T01:27:15;47.04;38.37;69.58;;
48967;Laerm;46511;53.148;8.204;2023-08-01T01:29:43;44.63;37.12;66.86;;
48967;Laerm;46511;53.148;8.204;2023-08-01T01:32:11;43.38;35.94;65.27;;
48967;Laerm;46511;53.148;8.204;2023-08-01T01:34:37;48.34;39.08;71.18;;
48967;Laerm;46511;53.148;8.204;2023-08-01T01:37:04;49.01;38.21;71.34;;
48967;Laerm;46511;53.148;8.204;2023-08-01T01:39:30;47.10;37.88;71.74;;
48967;Laerm;46511;53.148;8.204;2023-08-01T01:42:02;46.18;40.53;65.70;;
48967;Laerm;46511;53.148;8.204;2023-08-01T01:44:33;44.28;40.62;58.06;;
48967;Laerm;46511;53.148;8.204;2023-08-01T01:47:00;44.13;40.13;62.51;;
48967;Laerm;46511;53.148;8.204;2023-08-01T01:49:27;43.99;40.03;58.15;;
48967;Laerm;46511;53.148;8.204;2023-08-01T01:51:53;42.45;38.67;56.82;;
48967;Laerm;46511;53.148;8.204;2023-08-01T01:54:24;44.00;38.37;64.21;;
48967;Laerm;46511;53.148;8.204;2023-08-01T01:56:51;42.73;37.32;53.97;;
48967;Laerm;46511;53.148;8.204;2023-08-01T01:59:17;50.72;38.37;64.57;;
48967;Laerm;46511;53.148;8.204;2023-08-01T02:01:44;44.34;39.08;58.68;;
48967;Laerm;46511;53.148;8.204;2023-08-01T02:04:10;42.40;38.37;57.90;;
48967;Laerm;46511;53.148;8.204;2023-08-01T02:06:36;43.27;38.37;60.36;;
48967;Laerm;46511;53.148;8.204;2023-08-01T02:09:03;43.98;38.81;62.68;;
48967;Laerm;46511;53.148;8.204;2023-08-01T02:11:35;51.23;39.81;66.43;;
48967;Laerm;46511;53.148;8.204;2023-08-01T02:14:01;49.05;39.81;66.68;;
48967;Laerm;46511;53.148;8.204;2023-08-01T02:16:29;43.15;38.95;65.13;;
48967;Laerm;46511;53.148;8.204;2023-08-01T02:18:55;42.67;39.21;46.97;;
48967;Laerm;46511;53.148;8.204;2023-08-01T02:21:22;43.34;39.34;57.36;;
48967;Laerm;46511;53.148;8.204;2023-08-01T02:23:51;42.08;39.21;55.98;;
48967;Laerm;46511;53.148;8.204;2023-08-01T02:26:17;43.84;40.23;56.16;;
48967;Laerm;46511;53.148;8.204;2023-08-01T02:28:44;56.68;39.92;70.66;;
48967;Laerm;46511;53.148;8.204;2023-08-01T02:31:10;43.69;40.71;56.77;;
48967;Laerm;46511;53.148;8.204;2023-08-01T02:33:37;56.35;41.14;75.22;;
48967;Laerm;46511;53.148;8.204;2023-08-01T02:36:03;43.14;40.62;54.89;;
48967;Laerm;46511;53.148;8.204;2023-08-01T02:38:30;43.74;40.62;55.70;;
48967;Laerm;46511;53.148;8.204;2023-08-01T02:40:56;60.05;42.22;71.29;;
48967;Laerm;46511;53.148;8.204;2023-08-01T02:43:23;44.05;40.43;58.52;;
48967;Laerm;46511;53.148;8.204;2023-08-01T02:45:49;43.97;41.38;57.43;;
48967;Laerm;46511;53.148;8.204;2023-08-01T02:48:16;43.64;40.98;49.58;;
48967;Laerm;46511;53.148;8.204;2023-08-01T02:50:42;44.03;39.92;50.80;;
48967;Laerm;46511;53.148;8.204;2023-08-01T02:53:09;43.38;40.23;51.03;;
48967;Laerm;46511;53.148;8.204;2023-08-01T02:55:35;43.44;40.98;49.53;;
48967;Laerm;46511;53.148;8.204;2023-08-01T02:58:02;44.40;41.30;55.22;;
48967;Laerm;46511;53.148;8.204;2023-08-01T03:00:28;43.44;39.92;49.63;;
48967;Laerm;46511;53.148;8.204;2023-08-01T03:02:59;57.64;39.92;69.50;;
48967;Laerm;46511;53.148;8.204;2023-08-01T03:05:26;57.91;40.80;70.11;;
48967;Laerm;46511;53.148;8.204;2023-08-01T03:07:52;44.52;41.30;59.49;;
48967;Laerm;46511;53.148;8.204;2023-08-01T03:10:19;44.36;40.98;58.78;;
48967;Laerm;46511;53.148;8.204;2023-08-01T03:12:45;44.07;41.30;53.11;;
48967;Laerm;46511;53.148;8.204;2023-08-01T03:15:11;43.82;41.68;52.48;;
48967;Laerm;46511;53.148;8.204;2023-08-01T03:17:38;52.26;41.82;67.29;;
48967;Laerm;46511;53.148;8.204;2023-08-01T03:20:05;56.50;42.59;72.35;;
48967;Laerm;46511;53.148;8.204;2023-08-01T03:22:31;44.79;41.68;50.16;;
48967;Laerm;46511;53.148;8.204;2023-08-01T03:24:58;44.22;41.14;64.24;;
48967;Laerm;46511;53.148;8.204;2023-08-01T03:27:24;51.81;42.35;67.50;;
48967;Laerm;46511;53.148;8.204;2023-08-01T03:29:51;53.22;42.35;68.19;;
48967;Laerm;46511;53.148;8.204;2023-08-01T03:32:17;51.38;43.04;65.54;;
48967;Laerm;46511;53.148;8.204;2023-08-01T03:34:43;52.36;43.09;67.07;;
48967;Laerm;46511;53.148;8.204;2023-08-01T03:37:10;54.23;49.58;78.48;;
48967;Laerm;46511;53.148;8.204;2023-08-01T03:39:36;58.55;47.52;72.75;;
48967;Laerm;46511;53.148;8.204;2023-08-01T03:42:03;55.49;45.04;70.83;;
48967;Laerm;46511;53.148;8.204;2023-08-01T03:44:29;47.28;44.51;54.05;;
48967;Laerm;46511;53.148;8.204;2023-08-01T03:46:56;51.60;42.93;66.63;;
48967;Laerm;46511;53.148;8.204;2023-08-01T03:49:22;46.34;42.93;58.51;;
48967;Laerm;46511;53.148;8.204;2023-08-01T03:51:49;50.54;43.49;64.32;;
48967;Laerm;46511;53.148;8.204;2023-08-01T03:54:15;53.82;42.65;66.71;;
48967;Laerm;46511;53.148;8.204;2023-08-01T03:56:41;52.81;42.93;67.58;;
48967;Laerm;46511;53.148;8.204;2023-08-01T03:59:10;56.03;42.88;71.41;;
48967;Laerm;46511;53.148;8.204;2023-08-01T04:01:37;49.88;42.53;62.72;;
48967;Laerm;46511;53.148;8.204;2023-08-01T04:04:03;54.15;43.39;70.49;;
48967;Laerm;46511;53.148;8.204;2023-08-01T04:06:30;47.70;42.88;62.53;;
48967;Laerm;46511;53.148;8.204;2023-08-01T04:09:01;49.79;43.04;70.30;;
48967;Laerm;46511;53.148;8.204;2023-08-01T04:11:28;59.91;43.14;77.66;;
48967;Laerm;46511;53.148;8.204;2023-08-01T04:13:56;51.37;42.88;64.62;;
48967;Laerm;46511;53.148;8.204;2023-08-01T04:16:22;45.99;43.05;59.15;;
48967;Laerm;46511;53.148;8.204;2023-08-01T04:18:49;45.75;43.49;52.53;;
48967;Laerm;46511;53.148;8.204;2023-08-01T04:21:15;48.64;43.34;64.17;;
48967;Laerm;46511;53.148;8.204;2023-08-01T04:23:42;55.89;42.98;69.85;;
48967;Laerm;46511;53.148;8.204;2023-08-01T04:26:08;47.85;43.39;60.66;;
48967;Laerm;46511;53.148;8.204;2023-08-01T04:28:35;50.78;43.77;61.57;;
48967;Laerm;46511;53.148;8.204;2023-08-01T04:31:01;49.69;43.72;62.19;;
48967;Laerm;46511;53.148;8.204;2023-08-01T04:33:27;48.30;44.27;61.13;;
48967;Laerm;46511;53.148;8.204;2023-08-01T04:35:54;50.55;43.72;63.75;;
48967;Laerm;46511;53.148;8.204;2023-08-01T04:38:20;52.99;43.94;65.23;;
48967;Laerm;46511;53.148;8.204;2023-08-01T04:40:46;54.89;43.86;69.94;;
48967;Laerm;46511;53.148;8.204;2023-08-01T04:43:13;58.88;44.39;72.07;;
48967;Laerm;46511;53.148;8.204;2023-08-01T04:45:39;55.30;43.72;69.73;;
48967;Laerm;46511;53.148;8.204;2023-08-01T04:48:06;55.41;44.39;66.77;;
48967;Laerm;46511;53.148;8.204;2023-08-01T04:50:32;53.41;44.62;66.68;;
48967;Laerm;46511;53.148;8.204;2023-08-01T04:53:03;56.94;44.47;67.97;;
48967;Laerm;46511;53.148;8.204;2023-08-01T04:55:30;57.63;44.83;70.43;;
48967;Laerm;46511;53.148;8.204;2023-08-01T04:57:56;54.29;44.23;64.73;;
48967;Laerm;46511;53.148;8.204;2023-08-01T05:00:23;54.04;44.27;70.56;;
48967;Laerm;46511;53.148;8.204;2023-08-01T05:02:49;54.33;43.94;66.35;;
48967;Laerm;46511;53.148;8.204;2023-08-01T05:05:16;53.70;44.43;67.73;;
48967;Laerm;46511;53.148;8.204;2023-08-01T05:07:42;57.33;44.39;69.18;;
48967;Laerm;46511;53.148;8.204;2023-08-01T05:10:09;55.72;44.47;73.83;;
48967;Laerm;46511;53.148;8.204;2023-08-01T05:12:36;51.96;44.23;64.90;;
48967;Laerm;46511;53.148;8.204;2023-08-01T05:15:02;48.23;44.43;60.22;;
48967;Laerm;46511;53.148;8.204;2023-08-01T05:17:34;60.61;44.35;79.82;;
48967;Laerm;46511;53.148;8.204;2023-08-01T05:20:01;52.37;44.43;64.13;;
48967;Laerm;46511;53.148;8.204;2023-08-01T05:22:32;57.86;44.51;73.13;;
48967;Laerm;46511;53.148;8.204;2023-08-01T05:24:58;52.75;44.27;68.59;;
48967;Laerm;46511;53.148;8.204;2023-08-01T05:27:30;58.18;44.03;67.92;;
48967;Laerm;46511;53.148;8.204;2023-08-01T05:29:56;55.13;44.27;66.37;;
48967;Laerm;46511;53.148;8.204;2023-08-01T05:32:22;53.66;44.11;65.42;;
48967;Laerm;46511;53.148;8.204;2023-08-01T05:34:54;55.20;44.51;64.45;;
48967;Laerm;46511;53.148;8.204;2023-08-01T05:37:25;56.93;48.77;66.03;;
48967;Laerm;46511;53.148;8.204;2023-08-01T05:39:51;58.05;44.62;67.82;;
48967;Laerm;46511;53.148;8.204;2023-08-01T05:42:18;65.81;43.86;79.65;;
48967;Laerm;46511;53.148;8.204;2023-08-01T05:44:49;54.91;43.58;64.66;;
48967;Laerm;46511;53.148;8.204;2023-08-01T05:47:20;57.82;43.44;67.93;;
48967;Laerm;46511;53.148;8.204;2023-08-01T05:49:53;56.04;43.72;69.18;;
48967;Laerm;46511;53.148;8.204;2023-08-01T05:52:20;56.85;44.35;68.04;;
48967;Laerm;46511;53.148;8.204;2023-08-01T05:54:51;54.14;43.44;66.83;;
48967;Laerm;46511;53.148;8.204;2023-08-01T05:57:22;55.03;43.99;66.59;;
48967;Laerm;46511;53.148;8.204;2023-08-01T05:59:54;56.80;44.69;70.99;;
48967;Laerm;46511;53.148;8.204;2023-08-01T06:02:25;56.89;48.95;65.09;;
48967;Laerm;46511;53.148;8.204;2023-08-01T06:04:51;59.23;47.93;71.06;;
48967;Laerm;46511;53.148;8.204;2023-08-01T06:07:23;53.73;44.47;74.99;;
48967;Laerm;46511;53.148;8.204;2023-08-01T06:09:50;56.99;45.11;69.12;;
48967;Laerm;46511;53.148;8.204;2023-08-01T06:12:19;56.61;45.20;69.78;;
48967;Laerm;46511;53.148;8.204;2023-08-01T06:14:46;55.73;45.07;73.70;;
48967;Laerm;46511;53.148;8.204;2023-08-01T06:17:17;54.90;44.15;66.93;;
48967;Laerm;46511;53.148;8.204;2023-08-01T06:19:44;58.05;44.80;68.51;;
48967;Laerm;46511;53.148;8.204;2023-08-01T06:22:15;60.36;46.50;74.47;;
48967;Laerm;46511;53.148;8.204;2023-08-01T06:24:47;56.85;46.13;67.07;;
48967;Laerm;46511;53.148;8.204;2023-08-01T06:27:13;55.87;45.89;68.16;;
48967;Laerm;46511;53.148;8.204;2023-08-01T06:29:46;55.64;44.97;66.99;;
48967;Laerm;46511;53.148;8.204;2023-08-01T06:32:17;54.67;44.27;67.77;;
48967;Laerm;46511;53.148;8.204;2023-08-01T06:34:43;55.54;45.17;69.18;;
48967;Laerm;46511;53.148;8.204;2023-08-01T06:37:15;58.94;45.14;69.05;;
48967;Laerm;46511;53.148;8.204;2023-08-01T06:39:46;57.27;46.80;71.36;;
48967;Laerm;46511;53.148;8.204;2023-08-01T06:42:17;56.58;45.91;67.81;;
48967;Laerm;46511;53.148;8.204;2023-08-01T06:44:49;54.97;44.76;64.75;;
48967;Laerm;46511;53.148;8.204;2023-08-01T06:47:15;51.06;45.04;66.78;;
48967;Laerm;46511;53.148;8.204;2023-08-01T06:49:47;56.51;46.02;64.65;;
48967;Laerm;46511;53.148;8.204;2023-08-01T06:52:18;59.86;46.69;73.58;;
48967;Laerm;46511;53.148;8.204;2023-08-01T06:54:50;59.69;47.61;69.29;;
48967;Laerm;46511;53.148;8.204;2023-08-01T06:57:21;55.08;45.07;69.33;;
48967;Laerm;46511;53.148;8.204;2023-08-01T06:59:53;57.20;45.27;79.73;;
48967;Laerm;46511;53.148;8.204;2023-08-01T07:02:24;55.90;45.36;66.37;;
48967;Laerm;46511;53.148;8.204;2023-08-01T07:04:56;59.32;45.72;72.74;;
48967;Laerm;46511;53.148;8.204;2023-08-01T07:07:28;54.82;45.33;63.80;;
48967;Laerm;46511;53.148;8.204;2023-08-01T07:09:54;59.42;45.89;79.41;;
48967;Laerm;46511;53.148;8.204;2023-08-01T07:12:25;55.12;44.19;67.32;;
48967;Laerm;46511;53.148;8.204;2023-08-01T07:14:57;56.10;44.15;65.18;;
48967;Laerm;46511;53.148;8.204;2023-08-01T07:17:28;55.72;44.35;77.68;;
48967;Laerm;46511;53.148;8.204;2023-08-01T07:20:00;58.19;44.83;72.98;;
48967;Laerm;46511;53.148;8.204;2023-08-01T07:22:31;59.36;44.27;79.67;;
48967;Laerm;46511;53.148;8.204;2023-08-01T07:25:02;57.19;45.27;69.83;;
48967;Laerm;46511;53.148;8.204;2023-08-01T07:27:34;52.99;43.77;67.64;;
48967;Laerm;46511;53.148;8.204;2023-08-01T07:30:05;54.57;43.86;66.15;;
48967;Laerm;46511;53.148;8.204;2023-08-01T07:32:37;58.64;45.17;72.27;;
48967;Laerm;46511;53.148;8.204;2023-08-01T07:35:09;52.91;44.03;65.02;;
48967;Laerm;46511;53.148;8.204;2023-08-01T07:37:40;58.97;45.63;77.54;;
48967;Laerm;46511;53.148;8.204;2023-08-01T07:40:12;57.47;45.04;71.04;;
48967;Laerm;46511;53.148;8.204;2023-08-01T07:42:43;52.99;44.76;62.27;;
48967;Laerm;46511;53.148;8.204;2023-08-01T07:45:14;54.61;44.54;70.46;;
48967;Laerm;46511;53.148;8.204;2023-08-01T07:47:46;56.03;45.36;70.87;;
48967;Laerm;46511;53.148;8.204;2023-08-01T07:50:17;62.65;47.36;83.13;;
48967;Laerm;46511;53.148;8.204;2023-08-01T07:52:48;56.65;43.94;68.96;;
48967;Laerm;46511;53.148;8.204;2023-08-01T07:55:15;56.64;46.64;70.18;;
48967;Laerm;46511;53.148;8.204;2023-08-01T07:57:47;54.10;44.65;69.87;;
48967;Laerm;46511;53.148;8.204;2023-08-01T08:00:18;63.60;45.54;94.99;;
48967;Laerm;46511;53.148;8.204;2023-08-01T08:02:49;55.35;44.51;69.28;;
48967;Laerm;46511;53.148;8.204;2023-08-01T08:05:21;56.12;44.94;65.18;;
48967;Laerm;46511;53.148;8.204;2023-08-01T08:07:52;56.29;44.94;67.51;;
48967;Laerm;46511;53.148;8.204;2023-08-01T08:10:23;54.69;45.36;72.46;;
48967;Laerm;46511;53.148;8.204;2023-08-01T08:12:54;58.56;44.54;81.77;;
48967;Laerm;46511;53.148;8.204;2023-08-01T08:15:26;48.90;44.15;61.45;;
48967;Laerm;46511;53.148;8.204;2023-08-01T08:17:58;56.20;44.89;68.61;;
48967;Laerm;46511;53.148;8.204;2023-08-01T08:20:29;57.16;44.76;72.40;;
48967;Laerm;46511;53.148;8.204;2023-08-01T08:23:00;54.92;46.05;67.60;;
48967;Laerm;46511;53.148;8.204;2023-08-01T08:25:32;51.64;44.11;64.98;;
48967;Laerm;46511;53.148;8.204;2023-08-01T08:28:03;55.43;46.55;67.42;;
48967;Laerm;46511;53.148;8.204;2023-08-01T08:30:35;57.01;45.07;78.54;;
48967;Laerm;46511;53.148;8.204;2023-08-01T08:33:06;61.94;45.63;74.24;;
48967;Laerm;46511;53.148;8.204;2023-08-01T08:35:38;57.46;45.63;67.70;;
48967;Laerm;46511;53.148;8.204;2023-08-01T08:38:09;54.35;44.11;64.14;;
48967;Laerm;46511;53.148;8.204;2023-08-01T08:40:47;58.62;45.77;73.18;;
48967;Laerm;46511;53.148;8.204;2023-08-01T08:43:21;51.92;44.65;65.35;;
48967;Laerm;46511;53.148;8.204;2023-08-01T08:45:56;53.93;44.97;65.28;;
48967;Laerm;46511;53.148;8.204;2023-08-01T08:48:28;60.46;44.97;85.46;;
48967;Laerm;46511;53.148;8.204;2023-08-01T08:51:01;60.14;47.16;82.65;;
48967;Laerm;46511;53.148;8.204;2023-08-01T08:53:34;58.43;46.95;75.49;;
48967;Laerm;46511;53.148;8.204;2023-08-01T08:56:08;57.97;46.43;79.00;;
48967;Laerm;46511;53.148;8.204;2023-08-01T08:58:39;57.32;44.73;70.09;;
48967;Laerm;46511;53.148;8.204;2023-08-01T09:01:12;54.00;44.65;72.26;;
48967;Laerm;46511;53.148;8.204;2023-08-01T09:03:44;55.40;45.99;65.89;;
48967;Laerm;46511;53.148;8.204;2023-08-01T09:06:17;54.44;44.98;67.34;;
48967;Laerm;46511;53.148;8.204;2023-08-01T09:09:01;53.76;44.65;66.64;;
48967;Laerm;46511;53.148;8.204;2023-08-01T09:11:44;54.79;44.94;71.05;;
48967;Laerm;46511;53.148;8.204;2023-08-01T09:14:16;54.73;45.11;76.23;;
48967;Laerm;46511;53.148;8.204;2023-08-01T09:16:48;55.88;45.42;66.99;;
48967;Laerm;46511;53.148;8.204;2023-08-01T09:19:21;58.48;46.15;80.07;;
48967;Laerm;46511;53.148;8.204;2023-08-01T09:21:54;53.53;46.05;74.19;;
48967;Laerm;46511;53.148;8.204;2023-08-01T09:24:25;58.62;45.66;73.28;;
48967;Laerm;46511;53.148;8.204;2023-08-01T09:27:03;57.46;47.48;70.14;;
48967;Laerm;46511;53.148;8.204;2023-08-01T09:29:39;57.45;46.25;79.01;;
48967;Laerm;46511;53.148;8.204;2023-08-01T09:32:12;52.67;44.80;72.80;;
48967;Laerm;46511;53.148;8.204;2023-08-01T09:34:45;55.46;44.62;68.38;;
48967;Laerm;46511;53.148;8.204;2023-08-01T09:37:16;55.92;45.42;68.61;;
48967;Laerm;46511;53.148;8.204;2023-08-01T09:39:53;54.44;45.57;74.47;;
48967;Laerm;46511;53.148;8.204;2023-08-01T09:42:25;58.82;45.80;72.43;;
48967;Laerm;46511;53.148;8.204;2023-08-01T09:44:56;55.38;45.86;73.04;;
48967;Laerm;46511;53.148;8.204;2023-08-01T09:47:36;55.01;45.11;68.14;;
48967;Laerm;46511;53.148;8.204;2023-08-01T09:50:09;57.71;45.45;78.21;;
48967;Laerm;46511;53.148;8.204;2023-08-01T09:52:41;58.74;47.83;72.68;;
48967;Laerm;46511;53.148;8.204;2023-08-01T09:55:12;53.40;46.20;67.40;;
48967;Laerm;46511;53.148;8.204;2023-08-01T09:57:47;57.76;46.82;78.46;;
48967;Laerm;46511;53.148;8.204;2023-08-01T10:00:19;56.73;46.30;75.89;;
48967;Laerm;46511;53.148;8.204;2023-08-01T10:02:52;58.60;46.80;76.88;;
48967;Laerm;46511;53.148;8.204;2023-08-01T10:05:24;54.93;45.51;66.05;;
48967;Laerm;46511;53.148;8.204;2023-08-01T10:07:58;57.14;44.73;69.42;;
48967;Laerm;46511;53.148;8.204;2023-08-01T10:10:30;53.77;45.14;67.75;;
48967;Laerm;46511;53.148;8.204;2023-08-01T10:13:01;57.10;45.66;73.90;;
48967;Laerm;46511;53.148;8.204;2023-08-01T10:15:28;57.59;46.23;77.77;;
48967;Laerm;46511;53.148;8.204;2023-08-01T10:18:00;53.78;45.36;63.71;;
48967;Laerm;46511;53.148;8.204;2023-08-01T10:20:33;60.60;45.66;85.79;;
48967;Laerm;46511;53.148;8.204;2023-08-01T10:23:00;60.31;47.12;77.68;;
48967;Laerm;46511;53.148;8.204;2023-08-01T10:25:32;58.40;46.48;78.02;;
48967;Laerm;46511;53.148;8.204;2023-08-01T10:28:05;64.57;47.42;74.76;;
48967;Laerm;46511;53.148;8.204;2023-08-01T10:30:36;57.22;45.75;74.54;;
48967;Laerm;46511;53.148;8.204;2023-08-01T10:33:08;56.36;46.23;78.50;;
48967;Laerm;46511;53.148;8.204;2023-08-01T10:35:43;58.80;45.78;76.56;;
48967;Laerm;46511;53.148;8.204;2023-08-01T10:38:15;57.01;45.54;68.46;;
48967;Laerm;46511;53.148;8.204;2023-08-01T10:40:46;56.25;45.42;73.31;;
48967;Laerm;46511;53.148;8.204;2023-08-01T10:43:22;59.60;45.27;80.23;;
48967;Laerm;46511;53.148;8.204;2023-08-01T10:46:03;55.02;45.01;67.63;;
48967;Laerm;46511;53.148;8.204;2023-08-01T10:48:35;58.84;46.95;86.84;;
48967;Laerm;46511;53.148;8.204;2023-08-01T10:51:06;57.85;48.05;76.37;;
48967;Laerm;46511;53.148;8.204;2023-08-01T10:53:38;56.19;47.54;69.53;;
48967;Laerm;46511;53.148;8.204;2023-08-01T10:56:20;55.55;46.40;73.07;;
48967;Laerm;46511;53.148;8.204;2023-08-01T10:58:52;55.64;47.00;68.91;;
48967;Laerm;46511;53.148;8.204;2023-08-01T11:01:23;57.18;46.73;73.24;;
48967;Laerm;46511;53.148;8.204;2023-08-01T11:03:55;52.24;43.77;66.80;;
48967;Laerm;46511;53.148;8.204;2023-08-01T11:06:26;52.17;43.77;66.41;;
48967;Laerm;46511;53.148;8.204;2023-08-01T11:08:57;56.13;45.27;69.11;;
48967;Laerm;46511;53.148;8.204;2023-08-01T11:11:28;54.57;45.39;72.54;;
48967;Laerm;46511;53.148;8.204;2023-08-01T11:14:00;53.59;44.54;72.07;;
48967;Laerm;46511;53.148;8.204;2023-08-01T11:16:33;60.90;45.20;74.67;;
48967;Laerm;46511;53.148;8.204;2023-08-01T11:19:04;55.33;44.54;67.35;;
48967;Laerm;46511;53.148;8.204;2023-08-01T11:21:36;57.92;45.89;71.57;;
48967;Laerm;46511;53.148;8.204;2023-08-01T11:24:07;53.57;44.87;67.79;;
48967;Laerm;46511;53.148;8.204;2023-08-01T11:26:43;57.45;44.87;72.96;;
48967;Laerm;46511;53.148;8.204;2023-08-01T11:29:16;58.15;48.63;68.89;;
48967;Laerm;46511;53.148;8.204;2023-08-01T11:31:57;58.11;49.96;68.73;;
48967;Laerm;46511;53.148;8.204;2023-08-01T11:34:39;57.50;48.57;70.58;;
48967;Laerm;46511;53.148;8.204;2023-08-01T11:37:17;58.45;49.57;69.98;;
48967;Laerm;46511;53.148;8.204;2023-08-01T11:39:49;64.47;53.57;73.02;;
48967;Laerm;46511;53.148;8.204;2023-08-01T11:42:20;57.25;45.36;68.36;;
48967;Laerm;46511;53.148;8.204;2023-08-01T11:44:52;56.89;45.11;66.72;;
48967;Laerm;46511;53.148;8.204;2023-08-01T11:47:23;56.54;44.97;66.71;;
48967;Laerm;46511;53.148;8.204;2023-08-01T11:49:54;53.55;44.43;65.85;;
48967;Laerm;46511;53.148;8.204;2023-08-01T11:52:27;59.77;46.18;71.19;;
48967;Laerm;46511;53.148;8.204;2023-08-01T11:54:59;58.25;46.40;74.39;;
48967;Laerm;46511;53.148;8.204;2023-08-01T11:57:30;56.93;46.25;67.67;;
48967;Laerm;46511;53.148;8.204;2023-08-01T12:00:02;56.69;48.21;65.78;;
48967;Laerm;46511;53.148;8.204;2023-08-01T12:02:33;56.43;46.25;67.24;;
48967;Laerm;46511;53.148;8.204;2023-08-01T12:05:05;56.70;44.83;67.83;;
48967;Laerm;46511;53.148;8.204;2023-08-01T12:07:36;53.09;45.66;70.96;;
48967;Laerm;46511;53.148;8.204;2023-08-01T12:10:08;57.23;45.07;70.24;;
48967;Laerm;46511;53.148;8.204;2023-08-01T12:12:44;58.18;46.13;68.73;;
48967;Laerm;46511;53.148;8.204;2023-08-01T12:15:16;56.89;45.99;69.60;;
48967;Laerm;46511;53.148;8.204;2023-08-01T12:17:48;57.84;46.18;74.05;;
48967;Laerm;46511;53.148;8.204;2023-08-01T12:20:19;60.53;45.69;82.55;;
48967;Laerm;46511;53.148;8.204;2023-08-01T12:22:50;57.33;47.07;73.59;;
48967;Laerm;46511;53.148;8.204;2023-08-01T12:25:22;58.00;49.88;71.79;;
48967;Laerm;46511;53.148;8.204;2023-08-01T12:27:53;61.66;53.69;73.18;;
48967;Laerm;46511;53.148;8.204;2023-08-01T12:30:24;58.40;52.38;71.95;;
48967;Laerm;46511;53.148;8.204;2023-08-01T12:32:55;59.35;49.27;70.05;;
48967;Laerm;46511;53.148;8.204;2023-08-01T12:35:27;54.52;49.16;67.07;;
48967;Laerm;46511;53.148;8.204;2023-08-01T12:38:01;56.97;46.89;69.59;;
48967;Laerm;46511;53.148;8.204;2023-08-01T12:40:32;59.72;47.12;70.93;;
48967;Laerm;46511;53.148;8.204;2023-08-01T12:43:03;58.23;46.38;68.77;;
48967;Laerm;46511;53.148;8.204;2023-08-01T12:45:35;59.71;46.93;68.90;;
48967;Laerm;46511;53.148;8.204;2023-08-01T12:48:06;55.86;45.39;68.65;;
48967;Laerm;46511;53.148;8.204;2023-08-01T12:50:38;59.62;45.54;69.23;;
48967;Laerm;46511;53.148;8.204;2023-08-01T12:53:09;57.06;44.73;71.29;;
48967;Laerm;46511;53.148;8.204;2023-08-01T12:55:49;54.50;44.12;65.45;;
48967;Laerm;46511;53.148;8.204;2023-08-01T12:58:21;57.40;45.54;67.26;;
48967;Laerm;46511;53.148;8.204;2023-08-01T13:00:53;58.35;45.94;69.42;;
48967;Laerm;46511;53.148;8.204;2023-08-01T13:03:24;57.39;43.81;70.49;;
48967;Laerm;46511;53.148;8.204;2023-08-01T13:05:56;55.72;44.38;65.35;;
48967;Laerm;46511;53.148;8.204;2023-08-01T13:08:28;58.28;46.55;72.30;;
48967;Laerm;46511;53.148;8.204;2023-08-01T13:11:00;57.16;45.43;73.10;;
48967;Laerm;46511;53.148;8.204;2023-08-01T13:13:31;56.38;45.75;70.50;;
48967;Laerm;46511;53.148;8.204;2023-08-01T13:16:03;58.90;44.90;71.41;;
48967;Laerm;46511;53.148;8.204;2023-08-01T13:18:34;62.63;44.07;81.20;;
48967;Laerm;46511;53.148;8.204;2023-08-01T13:21:06;57.31;43.58;70.45;;
48967;Laerm;46511;53.148;8.204;2023-08-01T13:23:37;56.23;44.35;68.79;;
48967;Laerm;46511;53.148;8.204;2023-08-01T13:26:08;55.53;43.81;70.48;;
48967;Laerm;46511;53.148;8.204;2023-08-01T13:28:40;55.99;45.07;65.22;;
48967;Laerm;46511;53.148;8.204;2023-08-01T13:31:11;56.74;46.06;73.08;;
48967;Laerm;46511;53.148;8.204;2023-08-01T13:33:42;58.88;46.78;73.91;;
48967;Laerm;46511;53.148;8.204;2023-08-01T13:36:13;56.74;45.72;72.97;;
48967;Laerm;46511;53.148;8.204;2023-08-01T13:38:45;57.18;46.55;69.21;;
48967;Laerm;46511;53.148;8.204;2023-08-01T13:41:16;61.10;47.70;83.18;;
48967;Laerm;46511;53.148;8.204;2023-08-01T13:43:48;57.50;46.35;69.68;;
48967;Laerm;46511;53.148;8.204;2023-08-01T13:46:19;54.50;45.80;70.88;;
48967;Laerm;46511;53.148;8.204;2023-08-01T13:48:50;55.26;44.83;70.11;;
48967;Laerm;46511;53.148;8.204;2023-08-01T13:51:22;56.74;46.07;66.06;;
48967;Laerm;46511;53.148;8.204;2023-08-01T13:53:53;56.14;46.73;78.01;;
48967;Laerm;46511;53.148;8.204;2023-08-01T13:56:26;57.74;46.59;71.61;;
48967;Laerm;46511;53.148;8.204;2023-08-01T13:58:57;57.48;46.50;71.34;;
48967;Laerm;46511;53.148;8.204;2023-08-01T14:01:28;58.42;45.04;72.95;;